Terminal Aerodrome Forecast
Issued by NWS

Home | Current Version | Previous Version | Graphics & Text | Print | Product List | Glossary On
Versions: 1 2 3 4 5 6 7 8 9 10 11 12 13 14 15 16 17 18 19 20 21 22
341
FTUS43 KUNR 121821 AAA
TAFGCC
TAF AMD
KGCC 121821Z 1218/1318 15008KT P6SM BKN010 OVC060
     FM130100 19015KT P6SM SCT030 BKN120=

USA.gov is the U.S. government's official web portal to all federal, state and local government web resources and services.